Time;durP1;ratioP1;P1;durP2;ratioP2;P2;SDS_P1;SDS_P2;PMS_P1;PMS_P2;Temp;Humidity;BMP_temperature;BMP_pressure;BME280_temperature;BME280_humidity;BME280_pressure;Samples;Min_cycle;Max_cycle;Signal;HPM_P1;HPM_P2
2023/06/11 00:02:01;;;;;;;;;;;;;;;23.17;100.00;97848.25;5025122;28;19926;-70
2023/06/11 00:04:30;;;;;;;;;;;;;;;23.20;100.00;97851.09;5025776;28;19926;-70
2023/06/11 00:06:58;;;;;;;;;;;;;;;23.27;100.00;97847.78;5028215;28;19960;-70
2023/06/11 00:09:24;;;;;;;;;;;;;;;23.27;100.00;97845.84;5027678;28;19932;-70
2023/06/11 00:11:52;;;;;;;;;;;;;;;23.27;100.00;97845.84;5024507;28;19926;-70
2023/06/11 00:14:19;;;;;;;;;;;;;;;23.26;100.00;97854.34;5024758;28;19937;-70
2023/06/11 00:16:45;;;;;;;;;;;;;;;23.25;100.00;97848.09;5027968;28;19925;-70
2023/06/11 00:19:12;;;;;;;;;;;;;;;23.20;100.00;97851.09;5027989;28;19933;-70
2023/06/11 00:21:43;;;;;;;;;;;;;;;23.09;100.00;97852.69;5030256;28;19956;-70
2023/06/11 00:24:11;;;;;;;;;;;;;;;23.00;100.00;97854.78;5024658;28;19976;-70
2023/06/11 00:26:38;;;;;;;;;;;;;;;23.02;100.00;97856.03;5026975;28;19944;-70
2023/06/11 00:29:04;;;;;;;;;;;;;;;23.03;100.00;97856.81;5027811;28;19936;-70
2023/06/11 00:31:31;;;;;;;;;;;;;;;23.03;100.00;97862.25;5026205;28;19925;-70
2023/06/11 00:33:57;;;;;;;;;;;;;;;22.99;100.00;97855.94;5024377;28;19933;-70
2023/06/11 00:36:25;;;;;;;;;;;;;;;22.86;100.00;97848.91;5024483;28;19933;-70
2023/06/11 00:38:51;;;;;;;;;;;;;;;22.85;100.00;97841.88;5027686;28;19930;-70
2023/06/11 00:41:20;;;;;;;;;;;;;;;22.84;100.00;97851.19;5027606;28;19926;-70
2023/06/11 00:43:48;;;;;;;;;;;;;;;22.81;100.00;97847.22;5024095;28;19968;-70
2023/06/11 00:46:16;;;;;;;;;;;;;;;22.84;100.00;97853.94;5024085;28;19926;-70
2023/06/11 00:48:42;;;;;;;;;;;;;;;22.80;100.00;97842.91;5026984;28;19925;-70
2023/06/11 00:51:10;;;;;;;;;;;;;;;22.62;100.00;97851.66;5033336;28;19973;-70
2023/06/11 00:53:36;;;;;;;;;;;;;;;22.33;100.00;97856.22;5025366;28;19926;-70
2023/06/11 00:56:03;;;;;;;;;;;;;;;22.30;100.00;97850.66;5024045;28;19933;-70
2023/06/11 00:58:33;;;;;;;;;;;;;;;22.31;100.00;97847.56;5024942;28;19945;-70
2023/06/11 01:01:00;;;;;;;;;;;;;;;22.37;100.00;97854.41;5027249;28;19925;-70
2023/06/11 01:03:28;;;;;;;;;;;;;;;22.49;100.00;97854.41;5026508;28;19921;-70
2023/06/11 01:06:01;;;;;;;;;;;;;;;22.69;100.00;97849.16;5022677;28;19926;-70
2023/06/11 01:08:29;;;;;;;;;;;;;;;22.75;100.00;97839.63;5024790;28;19949;-70
2023/06/11 01:10:59;;;;;;;;;;;;;;;22.76;100.00;97844.75;5026214;28;19925;-70
2023/06/11 01:13:25;;;;;;;;;;;;;;;22.73;100.00;97852.78;5026474;28;19986;-70
2023/06/11 01:15:56;;;;;;;;;;;;;;;22.73;100.00;97853.59;5023499;28;19929;-70
2023/06/11 01:18:23;;;;;;;;;;;;;;;22.32;100.00;97853.81;5023774;28;19926;-70
2023/06/11 01:20:53;;;;;;;;;;;;;;;22.10;100.00;97865.94;5032716;28;19936;-70
2023/06/11 01:23:31;;;;;;;;;;;;;;;21.74;100.00;97865.84;5026316;28;19932;-70
2023/06/11 01:26:15;;;;;;;;;;;;;;;22.07;100.00;97863.91;5023328;28;19926;-70
2023/06/11 01:28:45;;;;;;;;;;;;;;;22.22;100.00;97868.66;5026143;28;19952;-70
2023/06/11 01:31:14;;;;;;;;;;;;;;;22.37;100.00;97861.78;5026786;28;19921;-70
2023/06/11 01:33:41;;;;;;;;;;;;;;;22.45;100.00;97858.94;5024023;28;19932;-70
2023/06/11 01:36:10;;;;;;;;;;;;;;;22.18;100.00;97862.34;5023220;28;19926;-70
2023/06/11 01:38:41;;;;;;;;;;;;;;;22.34;100.00;97867.91;5025397;28;19925;-70
2023/06/11 01:41:08;;;;;;;;;;;;;;;22.45;100.00;97866.28;5026755;28;19933;-71
2023/06/11 01:43:34;;;;;;;;;;;;;;;22.50;100.00;97869.56;5024779;28;19921;-70
2023/06/11 01:46:02;;;;;;;;;;;;;;;22.45;100.00;97867.09;5023056;28;19988;-70
2023/06/11 01:48:28;;;;;;;;;;;;;;;22.51;100.00;97856.75;5024147;28;19926;-70
2023/06/11 01:50:55;;;;;;;;;;;;;;;22.54;100.00;97867.75;5032405;28;19925;-70
2023/06/11 01:53:21;;;;;;;;;;;;;;;22.61;100.00;97861.75;5026627;28;19936;-70
2023/06/11 01:55:48;;;;;;;;;;;;;;;22.63;100.00;97866.84;5026828;28;19921;-70
2023/06/11 01:58:16;;;;;;;;;;;;;;;22.60;100.00;97866.41;5026154;28;19925;-70
2023/06/11 02:00:42;;;;;;;;;;;;;;;22.50;100.00;97866.84;5023257;28;19926;-70
2023/06/11 02:03:11;;;;;;;;;;;;;;;22.51;100.00;97867.66;5022776;28;19945;-70
2023/06/11 02:05:37;;;;;;;;;;;;;;;22.50;100.00;97866.84;5025080;28;19925;-70
2023/06/11 02:08:04;;;;;;;;;;;;;;;22.37;100.00;97864.50;5025004;28;19933;-70
2023/06/11 02:10:30;;;;;;;;;;;;;;;22.36;100.00;97860.97;5024703;28;19945;-70
2023/06/11 02:12:56;;;;;;;;;;;;;;;22.37;100.00;97857.13;5022866;28;19925;-70
2023/06/11 02:15:23;;;;;;;;;;;;;;;22.24;100.00;97860.97;5022913;28;19922;-70
2023/06/11 02:17:49;;;;;;;;;;;;;;;21.83;100.00;97861.13;5026155;28;19932;-70
2023/06/11 02:20:17;;;;;;;;;;;;;;;22.00;100.00;97863.69;5025938;28;19932;-70
2023/06/11 02:22:43;;;;;;;;;;;;;;;21.82;100.00;97868.47;5025944;28;19948;-70
2023/06/11 02:25:10;;;;;;;;;;;;;;;22.03;100.00;97873.88;5025704;28;19937;-70
2023/06/11 02:27:36;;;;;;;;;;;;;;;22.16;100.00;97872.75;5024035;28;19921;-70
2023/06/11 02:30:03;;;;;;;;;;;;;;;22.30;100.00;97875.13;5022689;28;20295;-70
2023/06/11 02:32:30;;;;;;;;;;;;;;;22.33;100.00;97877.97;5023652;28;19933;-70
2023/06/11 02:34:56;;;;;;;;;;;;;;;22.34;100.00;97876.06;5026508;28;20025;-70
2023/06/11 02:37:24;;;;;;;;;;;;;;;22.41;100.00;97876.25;5028690;28;19936;-70
2023/06/11 02:39:50;;;;;;;;;;;;;;;22.03;100.00;97880.09;5026640;28;19926;-70
2023/06/11 02:42:16;;;;;;;;;;;;;;;21.90;100.00;97880.44;5026556;28;19926;-70
2023/06/11 02:44:43;;;;;;;;;;;;;;;21.82;100.00;97889.41;5029216;28;19951;-70
2023/06/11 02:47:09;;;;;;;;;;;;;;;21.95;100.00;97882.91;5028639;28;19933;-70
2023/06/11 02:49:35;;;;;;;;;;;;;;;22.01;100.00;97878.84;5026655;28;19953;-70
2023/06/11 02:52:02;;;;;;;;;;;;;;;21.62;100.00;97879.41;5032244;28;19933;-70
2023/06/11 02:54:29;;;;;;;;;;;;;;;21.80;100.00;97880.81;5027243;28;19926;-70
2023/06/11 02:56:56;;;;;;;;;;;;;;;21.89;100.00;97887.78;5029637;28;19925;-70
2023/06/11 02:59:22;;;;;;;;;;;;;;;21.96;100.00;97879.06;5029332;28;19926;-70
2023/06/11 03:01:48;;;;;;;;;;;;;;;21.96;100.00;97881.78;5026165;28;19925;-71
2023/06/11 03:04:15;;;;;;;;;;;;;;;21.80;100.00;97875.38;5026134;28;19926;-70
2023/06/11 03:06:41;;;;;;;;;;;;;;;21.32;100.00;97882.22;5028651;28;19937;-70
2023/06/11 03:09:07;;;;;;;;;;;;;;;21.39;100.00;97882.50;5026541;28;19988;-70
2023/06/11 03:11:35;;;;;;;;;;;;;;;21.38;100.00;97886.38;5027610;28;19933;-70
2023/06/11 03:14:01;;;;;;;;;;;;;;;21.44;100.00;97887.75;5029431;28;19930;-70
2023/06/11 03:16:28;;;;;;;;;;;;;;;21.56;100.00;97886.19;5027270;28;19926;-70
2023/06/11 03:18:54;;;;;;;;;;;;;;;21.66;100.00;97888.50;5026062;28;19926;-70
2023/06/11 03:21:40;;;;;;;;;;;;;;;21.78;100.00;97886.59;5041788;28;19930;-70
2023/06/11 03:24:07;;;;;;;;;;;;;;;21.93;100.00;97891.44;5024507;28;19921;-70
2023/06/11 03:26:34;;;;;;;;;;;;;;;22.02;100.00;97894.84;5028391;28;19926;-70
2023/06/11 03:29:01;;;;;;;;;;;;;;;22.06;100.00;97884.09;5025798;28;19934;-70
2023/06/11 03:31:28;;;;;;;;;;;;;;;22.01;100.00;97889.72;5026635;28;19925;-70
2023/06/11 03:33:54;;;;;;;;;;;;;;;21.69;100.00;97890.53;5029228;28;19922;-70
2023/06/11 03:36:20;;;;;;;;;;;;;;;21.46;100.00;97885.47;5029009;28;19930;-70
2023/06/11 03:38:47;;;;;;;;;;;;;;;21.09;100.00;97888.34;5025433;28;19925;-71
2023/06/11 03:41:13;;;;;;;;;;;;;;;20.76;100.00;97890.97;5025498;28;19926;-70
2023/06/11 03:43:41;;;;;;;;;;;;;;;21.07;100.00;97894.09;5027805;28;19933;-70
2023/06/11 03:46:07;;;;;;;;;;;;;;;21.42;100.00;97894.63;5028305;28;19936;-70
2023/06/11 03:48:34;;;;;;;;;;;;;;;21.53;100.00;97888.47;5027116;28;19925;-70
2023/06/11 03:51:00;;;;;;;;;;;;;;;21.71;100.00;97891.00;5030524;28;19936;-70
2023/06/11 03:53:26;;;;;;;;;;;;;;;21.84;100.00;97887.19;5027872;28;19929;-70
2023/06/11 03:55:53;;;;;;;;;;;;;;;21.91;100.00;97888.22;5025242;28;19926;-70
2023/06/11 03:58:20;;;;;;;;;;;;;;;21.93;100.00;97888.72;5023949;28;19926;-70
2023/06/11 04:00:47;;;;;;;;;;;;;;;21.91;100.00;97899.09;5028509;28;19932;-70
2023/06/11 04:03:14;;;;;;;;;;;;;;;21.88;100.00;97891.63;5028411;28;19925;-70
2023/06/11 04:05:41;;;;;;;;;;;;;;;21.96;100.00;97896.19;5025367;28;19960;-70
2023/06/11 04:08:07;;;;;;;;;;;;;;;21.96;100.00;97896.19;5025449;28;19949;-70
2023/06/11 04:10:34;;;;;;;;;;;;;;;21.88;100.00;97899.78;5026519;28;19926;-70
2023/06/11 04:13:00;;;;;;;;;;;;;;;21.65;100.00;97903.19;5028249;28;19937;-70
2023/06/11 04:15:26;;;;;;;;;;;;;;;21.74;100.00;97898.47;5027487;28;19921;-70
2023/06/11 04:17:54;;;;;;;;;;;;;;;21.82;100.00;97903.81;5024821;28;19937;-70
2023/06/11 04:20:20;;;;;;;;;;;;;;;21.53;100.00;97903.97;5030546;28;19944;-70
2023/06/11 04:22:47;;;;;;;;;;;;;;;21.18;100.00;97908.09;5024641;28;19933;-70
2023/06/11 04:25:13;;;;;;;;;;;;;;;20.88;100.00;97907.34;5024589;28;19926;-70
2023/06/11 04:27:40;;;;;;;;;;;;;;;20.88;100.00;97899.19;5027169;28;19925;-70
2023/06/11 04:30:09;;;;;;;;;;;;;;;21.31;100.00;97907.84;5027836;28;19925;-70
2023/06/11 04:32:36;;;;;;;;;;;;;;;21.49;100.00;97903.03;5026037;28;19952;-70
2023/06/11 04:35:05;;;;;;;;;;;;;;;21.53;100.00;97909.41;5024360;28;19937;-70
2023/06/11 04:37:38;;;;;;;;;;;;;;;21.60;100.00;97903.44;5025546;28;19926;-70
2023/06/11 04:40:09;;;;;;;;;;;;;;;21.64;100.00;97904.31;5027719;28;19952;-70
2023/06/11 04:42:35;;;;;;;;;;;;;;;21.54;100.00;97906.34;5025761;28;19968;-70
2023/06/11 04:45:04;;;;;;;;;;;;;;;21.63;100.00;97906.28;5024293;28;19937;-70
2023/06/11 04:47:33;;;;;;;;;;;;;;;21.70;100.00;97908.41;5024279;28;19936;-70
2023/06/11 04:50:03;;;;;;;;;;;;;;;21.32;100.00;97908.63;5027522;28;19925;-70
2023/06/11 04:52:32;;;;;;;;;;;;;;;20.80;100.00;97908.16;5027452;28;19922;-70
2023/06/11 04:54:58;;;;;;;;;;;;;;;20.90;100.00;97911.31;5027515;28;19926;-70
2023/06/11 04:57:25;;;;;;;;;;;;;;;20.90;100.00;97913.22;5026058;28;19933;-70
2023/06/11 04:59:51;;;;;;;;;;;;;;;20.82;100.00;97908.66;5023808;28;19926;-70
2023/06/11 05:02:18;;;;;;;;;;;;;;;20.97;100.00;97918.94;5023923;28;19925;-70
2023/06/11 05:04:44;;;;;;;;;;;;;;;21.02;100.00;97902.44;5025709;28;19926;-70
2023/06/11 05:07:10;;;;;;;;;;;;;;;21.11;100.00;97903.19;5027183;28;19922;-70
2023/06/11 05:09:39;;;;;;;;;;;;;;;20.87;100.00;97908.44;5023929;28;19925;-70
2023/06/11 05:12:06;;;;;;;;;;;;;;;21.12;100.00;97904.78;5023709;28;19926;-70
2023/06/11 05:14:32;;;;;;;;;;;;;;;20.96;100.00;97906.47;5025184;28;19930;-70
2023/06/11 05:16:59;;;;;;;;;;;;;;;20.83;100.00;97889.31;5026957;28;19952;-70
2023/06/11 05:19:26;;;;;;;;;;;;;;;20.45;100.00;97905.69;5026363;28;19925;-70
2023/06/11 05:21:52;;;;;;;;;;;;;;;20.38;100.00;97908.09;5029460;28;19933;-70
2023/06/11 05:24:20;;;;;;;;;;;;;;;20.13;100.00;97919.00;5023440;28;19926;-70
2023/06/11 05:26:47;;;;;;;;;;;;;;;20.05;100.00;97915.22;5026786;28;19929;-70
2023/06/11 05:29:14;;;;;;;;;;;;;;;20.26;100.00;97910.69;5025948;28;19933;-70
2023/06/11 05:31:40;;;;;;;;;;;;;;;20.70;100.00;97914.78;5024256;28;20374;-70
2023/06/11 05:34:07;;;;;;;;;;;;;;;21.05;100.00;97907.19;5023197;28;19925;-70
2023/06/11 05:36:33;;;;;;;;;;;;;;;21.29;100.00;97912.78;5024853;28;19941;-70
2023/06/11 05:38:59;;;;;;;;;;;;;;;21.47;100.00;97911.53;5026951;28;19936;-70
2023/06/11 05:41:26;;;;;;;;;;;;;;;21.64;100.00;97920.63;5025865;28;19945;-70
2023/06/11 05:43:53;;;;;;;;;;;;;;;21.84;100.00;97920.59;5023105;28;19929;-70
2023/06/11 05:46:23;;;;;;;;;;;;;;;21.97;100.00;97918.75;5023201;28;19985;-70
2023/06/11 05:48:50;;;;;;;;;;;;;;;22.14;100.00;97913.09;5018825;28;19955;-70
2023/06/11 05:51:16;;;;;;;;;;;;;;;22.13;100.00;97910.72;5032483;28;19936;-70
2023/06/11 05:53:43;;;;;;;;;;;;;;;22.04;100.00;97918.97;5023577;28;19926;-71
2023/06/11 05:56:09;;;;;;;;;;;;;;;22.14;100.00;97912.28;5023050;28;19952;-70
2023/06/11 05:58:36;;;;;;;;;;;;;;;22.38;100.00;97907.69;5024733;28;20520;-70
2023/06/11 06:01:04;;;;;;;;;;;;;;;22.40;100.00;97918.22;5026207;28;19936;-70
2023/06/11 06:03:30;;;;;;;;;;;;;;;22.53;100.00;97926.03;5025195;28;19930;-70
2023/06/11 06:05:58;;;;;;;;;;;;;;;22.63;100.00;97924.81;5022897;28;19930;-70
2023/06/11 06:08:24;;;;;;;;;;;;;;;22.74;100.00;97920.53;5023122;28;19925;-70
2023/06/11 06:10:51;;;;;;;;;;;;;;;22.73;100.00;97918.13;5025039;28;19975;-70
2023/06/11 06:13:17;;;;;;;;;;;;;;;22.66;100.00;97924.16;5026480;28;19925;-70
2023/06/11 06:15:43;;;;;;;;;;;;;;;22.91;100.00;97928.44;5023026;28;19926;-70
2023/06/11 06:18:11;;;;;;;;;;;;;;;22.89;100.00;97921.75;5021532;28;19926;-70
2023/06/11 06:20:37;;;;;;;;;;;;;;;23.11;100.00;97924.00;5030934;28;19933;-70
2023/06/11 06:23:04;;;;;;;;;;;;;;;23.34;100.00;97919.59;5026278;28;19926;-70
2023/06/11 06:25:31;;;;;;;;;;;;;;;23.38;100.00;97922.44;5023764;28;19929;-70
2023/06/11 06:27:58;;;;;;;;;;;;;;;23.50;100.00;97931.38;5021780;28;19926;-70
2023/06/11 06:30:24;;;;;;;;;;;;;;;23.61;100.00;97932.47;5023095;28;19922;-70
2023/06/11 06:32:50;;;;;;;;;;;;;;;23.80;100.00;97925.59;5025950;28;19932;-70
2023/06/11 06:35:18;;;;;;;;;;;;;;;23.80;100.00;97931.03;5024919;28;19926;-70
2023/06/11 06:37:45;;;;;;;;;;;;;;;23.98;99.87;97935.03;5023052;28;19926;-70
2023/06/11 06:40:12;;;;;;;;;;;;;;;23.93;99.07;97929.81;5022490;28;19990;-70
2023/06/11 06:42:38;;;;;;;;;;;;;;;24.05;99.96;97927.03;5024820;28;19926;-70
2023/06/11 06:45:05;;;;;;;;;;;;;;;24.07;97.62;97922.81;5025765;28;20291;-70
2023/06/11 06:47:31;;;;;;;;;;;;;;;24.02;97.59;97928.53;5024478;28;19925;-70
2023/06/11 06:49:57;;;;;;;;;;;;;;;24.28;97.12;97924.53;5025289;28;19930;-71
2023/06/11 06:52:25;;;;;;;;;;;;;;;24.23;96.96;97935.72;5025646;28;19925;-71
2023/06/11 06:54:51;;;;;;;;;;;;;;;24.15;96.07;97923.81;5025633;28;19936;-70
2023/06/11 06:57:18;;;;;;;;;;;;;;;24.05;96.05;97924.28;5025295;28;19932;-70
2023/06/11 06:59:44;;;;;;;;;;;;;;;24.31;94.77;97921.91;5022370;28;19937;-70
2023/06/11 07:02:11;;;;;;;;;;;;;;;24.15;94.28;97923.81;5022245;28;19949;-70
2023/06/11 07:04:37;;;;;;;;;;;;;;;24.18;92.28;97923.91;5024241;28;19925;-70
2023/06/11 07:07:03;;;;;;;;;;;;;;;24.10;92.52;97933.03;5025857;28;19929;-71
2023/06/11 07:09:31;;;;;;;;;;;;;;;23.82;92.47;97926.03;5024576;28;19929;-70
2023/06/11 07:11:58;;;;;;;;;;;;;;;23.73;93.53;97922.66;5022186;28;19926;-70
2023/06/11 07:14:24;;;;;;;;;;;;;;;24.03;94.73;97921.94;5022470;28;19922;-70
2023/06/11 07:16:50;;;;;;;;;;;;;;;24.32;90.94;97926.22;5025680;28;19933;-70
2023/06/11 07:19:16;;;;;;;;;;;;;;;24.26;88.00;97933.09;5025609;28;19929;-70
2023/06/11 07:21:43;;;;;;;;;;;;;;;23.89;89.93;97924.28;5030516;28;19941;-71
2023/06/11 07:24:09;;;;;;;;;;;;;;;23.70;92.33;97929.63;5025782;28;19926;-70
2023/06/11 07:26:37;;;;;;;;;;;;;;;23.69;92.54;97922.56;5027423;28;19926;-70
2023/06/11 07:29:03;;;;;;;;;;;;;;;23.82;92.90;97928.75;5028288;28;20343;-70
2023/06/11 07:31:29;;;;;;;;;;;;;;;23.95;93.22;97925.59;5027365;28;19925;-70
2023/06/11 07:33:56;;;;;;;;;;;;;;;23.99;90.53;97925.69;5024881;28;19949;-70
2023/06/11 07:36:22;;;;;;;;;;;;;;;24.01;90.39;97923.44;5024658;28;19937;-70
2023/06/11 07:38:48;;;;;;;;;;;;;;;23.96;91.87;97915.47;5026720;28;19937;-70
2023/06/11 07:41:15;;;;;;;;;;;;;;;23.88;91.05;97919.19;5026658;28;19926;-70
2023/06/11 07:43:43;;;;;;;;;;;;;;;23.88;90.84;97917.25;5025186;28;19926;-70
2023/06/11 07:46:09;;;;;;;;;;;;;;;23.93;92.07;97918.91;5024697;28;19922;-70
2023/06/11 07:48:41;;;;;;;;;;;;;;;24.12;87.66;97914.41;5026331;28;19925;-70
2023/06/11 07:51:07;;;;;;;;;;;;;;;24.16;89.27;97915.28;5034363;28;20254;-70
2023/06/11 07:53:34;;;;;;;;;;;;;;;24.64;86.82;97911.38;5022740;28;19926;-70
2023/06/11 07:56:00;;;;;;;;;;;;;;;24.37;85.15;97914.22;5026668;28;19929;-70
2023/06/11 07:58:26;;;;;;;;;;;;;;;24.48;84.38;97915.28;5027132;28;19922;-70
2023/06/11 08:00:54;;;;;;;;;;;;;;;24.71;80.86;97922.47;5039604;28;19936;-70
2023/06/11 08:03:21;;;;;;;;;;;;;;;24.42;81.10;97914.75;5024436;28;19926;-70
2023/06/11 08:05:47;;;;;;;;;;;;;;;24.27;82.17;97912.00;5027675;28;19948;-71
2023/06/11 08:08:13;;;;;;;;;;;;;;;24.10;81.85;97907.69;5027545;28;19932;-70
2023/06/11 08:10:40;;;;;;;;;;;;;;;23.93;82.87;97911.53;5025293;28;19925;-70
2023/06/11 08:13:06;;;;;;;;;;;;;;;24.44;84.04;97909.75;5024246;28;19953;-70
2023/06/11 08:15:32;;;;;;;;;;;;;;;24.39;82.49;97914.66;5025433;28;19926;-70
2023/06/11 08:18:00;;;;;;;;;;;;;;;24.57;81.77;97905.75;5027740;28;19925;-70
2023/06/11 08:20:26;;;;;;;;;;;;;;;25.03;78.95;97906.84;5027643;28;19925;-70
2023/06/11 08:22:53;;;;;;;;;;;;;;;24.53;73.74;97902.16;5027696;28;19921;-70
2023/06/11 08:25:19;;;;;;;;;;;;;;;24.53;73.18;97907.63;5027456;28;19933;-70
2023/06/11 08:27:45;;;;;;;;;;;;;;;24.54;74.20;97911.91;5024546;28;19948;-70
2023/06/11 08:30:12;;;;;;;;;;;;;;;24.51;72.22;97906.41;5024907;28;20259;-69
2023/06/11 08:32:39;;;;;;;;;;;;;;;24.52;70.45;97906.03;5026953;28;19933;-69
2023/06/11 08:35:07;;;;;;;;;;;;;;;24.82;71.25;97903.63;5028144;28;19937;-70
2023/06/11 08:37:33;;;;;;;;;;;;;;;24.77;70.48;97897.63;5026846;28;19933;-70
2023/06/11 08:40:00;;;;;;;;;;;;;;;24.85;67.39;97885.75;5024638;28;20542;-70
2023/06/11 08:42:26;;;;;;;;;;;;;;;24.73;67.53;97902.22;5024854;28;20387;-70
2023/06/11 08:44:53;;;;;;;;;;;;;;;24.59;67.30;97898.00;5026472;28;19925;-70
2023/06/11 08:47:20;;;;;;;;;;;;;;;24.89;68.93;97892.88;5026507;28;20003;-70
2023/06/11 08:49:48;;;;;;;;;;;;;;;24.86;65.92;97899.03;5025538;28;19926;-70
2023/06/11 08:52:16;;;;;;;;;;;;;;;25.13;64.81;97895.34;5027553;28;19932;-70
2023/06/11 08:54:43;;;;;;;;;;;;;;;25.05;61.49;97890.09;5027002;28;19940;-70
2023/06/11 08:57:09;;;;;;;;;;;;;;;25.27;63.44;97883.91;5027599;28;19933;-70
2023/06/11 08:59:36;;;;;;;;;;;;;;;25.44;62.00;97886.22;5025712;28;19925;-70
2023/06/11 09:02:02;;;;;;;;;;;;;;;25.49;61.89;97885.97;5023261;28;19925;-70
2023/06/11 09:04:29;;;;;;;;;;;;;;;26.13;60.43;97885.19;5024813;28;19925;-70
2023/06/11 09:06:58;;;;;;;;;;;;;;;25.93;58.29;97885.63;5027409;28;19929;-70
2023/06/11 09:09:25;;;;;;;;;;;;;;;26.24;58.07;97886.19;5026022;28;19936;-70
2023/06/11 09:11:52;;;;;;;;;;;;;;;25.48;59.31;97892.53;5023916;28;19962;-70
2023/06/11 09:14:18;;;;;;;;;;;;;;;25.23;61.09;97891.25;5023892;28;19925;-70
2023/06/11 09:16:46;;;;;;;;;;;;;;;25.18;62.15;97884.13;5026953;28;19926;-70
2023/06/11 09:19:13;;;;;;;;;;;;;;;25.15;62.71;97890.31;5027497;28;19933;-70
2023/06/11 09:21:40;;;;;;;;;;;;;;;25.19;63.39;97887.66;5031280;28;19928;-70
2023/06/11 09:24:06;;;;;;;;;;;;;;;25.21;63.44;97877.16;5023749;28;19926;-70
2023/06/11 09:26:34;;;;;;;;;;;;;;;25.62;63.31;97889.34;5024348;28;19926;-70
2023/06/11 09:29:02;;;;;;;;;;;;;;;25.45;62.28;97893.28;5027229;28;19925;-70
2023/06/11 09:31:29;;;;;;;;;;;;;;;25.66;62.16;97893.72;5026395;28;19922;-70
2023/06/11 09:34:01;;;;;;;;;;;;;;;25.41;61.90;97895.13;5023700;28;19929;-70
2023/06/11 09:36:27;;;;;;;;;;;;;;;25.45;62.57;97890.53;5039462;28;19933;-70
2023/06/11 09:38:55;;;;;;;;;;;;;;;25.66;62.80;97890.97;5027176;28;19929;-70
2023/06/11 09:41:22;;;;;;;;;;;;;;;25.62;61.32;97898.34;5026880;28;19922;-70
2023/06/11 09:43:52;;;;;;;;;;;;;;;25.51;61.26;97894.59;5023034;28;19926;-70
2023/06/11 09:46:19;;;;;;;;;;;;;;;25.52;61.81;97893.44;5023366;28;19945;-70
2023/06/11 09:48:46;;;;;;;;;;;;;;;25.52;60.56;97898.13;5026489;28;19930;-70
2023/06/11 09:51:13;;;;;;;;;;;;;;;25.69;61.06;97893.00;5031756;28;19926;-70
2023/06/11 09:53:41;;;;;;;;;;;;;;;25.66;60.78;97890.19;5024313;28;19926;-70
2023/06/11 09:56:07;;;;;;;;;;;;;;;25.72;61.88;97903.19;5023081;28;19926;-70
2023/06/11 09:58:34;;;;;;;;;;;;;;;26.13;61.08;97900.81;5024485;28;20685;-70
2023/06/11 10:01:03;;;;;;;;;;;;;;;25.85;59.93;97894.81;5025433;28;19926;-70
2023/06/11 10:03:31;;;;;;;;;;;;;;;25.66;60.90;97899.19;5025464;28;19936;-70
2023/06/11 10:05:57;;;;;;;;;;;;;;;25.61;60.56;97894.00;5023011;28;19933;-70
2023/06/11 10:08:25;;;;;;;;;;;;;;;25.53;60.62;97900.47;5023075;28;19926;-70
2023/06/11 10:10:55;;;;;;;;;;;;;;;25.80;59.77;97897.88;5025330;28;19948;-70
2023/06/11 10:13:27;;;;;;;;;;;;;;;26.10;59.61;97901.53;5026851;28;19926;-70
2023/06/11 10:15:54;;;;;;;;;;;;;;;25.75;59.34;97897.00;5023251;28;19926;-70
2023/06/11 10:18:24;;;;;;;;;;;;;;;25.66;59.34;97888.25;5022703;28;19925;-70
2023/06/11 10:20:53;;;;;;;;;;;;;;;25.41;60.01;97897.88;5026457;28;20374;-70
2023/06/11 10:23:20;;;;;;;;;;;;;;;25.33;60.80;97901.63;5024873;28;19926;-70
2023/06/11 10:25:52;;;;;;;;;;;;;;;25.48;60.68;97903.47;5022580;28;19926;-70
2023/06/11 10:28:19;;;;;;;;;;;;;;;25.61;60.76;97902.22;5022687;28;19952;-70
2023/06/11 10:30:51;;;;;;;;;;;;;;;25.86;60.07;97897.22;5025526;28;19927;-70
2023/06/11 10:33:18;;;;;;;;;;;;;;;25.88;58.83;97913.25;5025814;28;19926;-70
2023/06/11 10:35:47;;;;;;;;;;;;;;;25.73;58.69;97904.78;5021852;28;20444;-70
2023/06/11 10:38:15;;;;;;;;;;;;;;;25.69;60.08;97906.66;5021924;28;19922;-70
2023/06/11 10:40:41;;;;;;;;;;;;;;;25.74;58.58;97900.91;5024065;28;19926;-70
2023/06/11 10:43:15;;;;;;;;;;;;;;;25.74;60.51;97903.66;5024942;28;19980;-70
2023/06/11 10:45:41;;;;;;;;;;;;;;;25.74;59.48;97914.59;5022509;28;20425;-70
2023/06/11 10:48:08;;;;;;;;;;;;;;;25.70;60.40;97910.19;5021918;28;19926;-70
2023/06/11 10:50:35;;;;;;;;;;;;;;;25.89;61.24;97912.13;5028262;28;19922;-70
2023/06/11 10:53:08;;;;;;;;;;;;;;;25.78;61.32;97912.69;5025142;28;19941;-70
2023/06/11 10:55:35;;;;;;;;;;;;;;;25.77;60.51;97908.41;5023696;28;19925;-70
2023/06/11 10:58:02;;;;;;;;;;;;;;;25.85;59.93;97894.81;5025824;28;19949;-70
2023/06/11 11:00:32;;;;;;;;;;;;;;;26.01;60.03;97901.00;5026968;28;19937;-70
2023/06/11 11:02:59;;;;;;;;;;;;;;;26.16;58.50;97902.84;5029497;28;19936;-70
2023/06/11 11:05:26;;;;;;;;;;;;;;;26.15;59.08;97899.31;5029018;28;19964;-70
2023/06/11 11:07:54;;;;;;;;;;;;;;;26.32;57.27;97900.00;5024857;28;19926;-70
2023/06/11 11:10:25;;;;;;;;;;;;;;;26.63;57.28;97903.25;5025815;28;19926;-70
2023/06/11 11:12:51;;;;;;;;;;;;;;;26.53;55.35;97895.66;5025675;28;19925;-70
2023/06/11 11:15:18;;;;;;;;;;;;;;;26.58;55.79;97900.84;5024355;28;19937;-70
2023/06/11 11:17:44;;;;;;;;;;;;;;;26.63;53.83;97902.44;5028787;28;19925;-70
2023/06/11 11:20:12;;;;;;;;;;;;;;;26.52;53.61;97891.31;5027790;28;19925;-70
2023/06/11 11:22:38;;;;;;;;;;;;;;;26.57;53.03;97904.72;5029091;28;19977;-70
2023/06/11 11:25:06;;;;;;;;;;;;;;;26.44;53.05;97892.38;5027673;28;19925;-70
2023/06/11 11:27:37;;;;;;;;;;;;;;;26.21;52.07;97906.06;5027583;28;19986;-70
2023/06/11 11:30:04;;;;;;;;;;;;;;;26.17;52.10;97901.72;5025770;28;19926;-70
2023/06/11 11:32:32;;;;;;;;;;;;;;;26.36;53.47;97898.13;5027334;28;20216;-70
2023/06/11 11:35:00;;;;;;;;;;;;;;;26.42;52.89;97894.69;5029010;28;19936;-70
2023/06/11 11:37:28;;;;;;;;;;;;;;;26.24;53.63;97891.66;5028409;28;19933;-70
2023/06/11 11:39:55;;;;;;;;;;;;;;;26.21;54.06;97891.63;5025403;28;19933;-70
2023/06/11 11:42:21;;;;;;;;;;;;;;;26.15;51.53;97887.56;5025293;28;20514;-70
2023/06/11 11:44:50;;;;;;;;;;;;;;;26.17;51.38;97885.28;5019417;28;19925;-70
2023/06/11 11:47:20;;;;;;;;;;;;;;;26.26;50.80;97877.63;5028887;28;19933;-70
2023/06/11 11:49:51;;;;;;;;;;;;;;;26.45;51.91;97890.44;5026838;28;19929;-70
2023/06/11 11:52:21;;;;;;;;;;;;;;;26.26;49.55;97883.88;5029574;28;19937;-70
2023/06/11 11:54:47;;;;;;;;;;;;;;;26.28;49.96;97880.75;5028536;28;19952;-70
2023/06/11 11:57:13;;;;;;;;;;;;;;;26.32;50.94;97883.56;5028494;28;19937;-70
2023/06/11 11:59:40;;;;;;;;;;;;;;;26.45;50.29;97885.75;5026230;28;19932;-70
2023/06/11 12:02:08;;;;;;;;;;;;;;;26.49;50.94;97875.63;5025117;28;19926;-70
2023/06/11 12:04:36;;;;;;;;;;;;;;;26.64;48.53;97869.22;5026649;28;19936;-70
2023/06/11 12:07:03;;;;;;;;;;;;;;;26.54;48.27;97872.59;5028106;28;19925;-70
2023/06/11 12:09:29;;;;;;;;;;;;;;;26.65;47.91;97873.53;5027790;28;19933;-70
2023/06/11 12:11:55;;;;;;;;;;;;;;;26.48;48.52;97868.59;5024948;28;19926;-70
2023/06/11 12:14:21;;;;;;;;;;;;;;;26.68;47.74;97875.53;5024944;28;19925;-70
2023/06/11 12:16:48;;;;;;;;;;;;;;;26.53;48.08;97870.19;5024465;28;19925;-70
2023/06/11 12:19:18;;;;;;;;;;;;;;;26.57;46.95;97880.06;5024780;28;19948;-70
2023/06/11 12:21:44;;;;;;;;;;;;;;;26.51;45.94;97873.31;5032701;28;20260;-70
2023/06/11 12:24:11;;;;;;;;;;;;;;;26.44;45.90;97872.41;5024948;28;19926;-70
2023/06/11 12:26:38;;;;;;;;;;;;;;;26.47;45.54;97867.00;5026972;28;20314;-70
2023/06/11 12:29:04;;;;;;;;;;;;;;;26.48;46.14;97876.81;5028279;28;19937;-70
2023/06/11 12:31:31;;;;;;;;;;;;;;;26.42;45.99;97861.84;5027083;28;19926;-70
2023/06/11 12:33:57;;;;;;;;;;;;;;;26.46;45.71;97875.59;5024672;28;19940;-70
2023/06/11 12:36:25;;;;;;;;;;;;;;;26.48;45.70;97878.75;5024535;28;19929;-70
2023/06/11 12:38:51;;;;;;;;;;;;;;;26.70;45.53;97864.22;5027928;28;19945;-70
2023/06/11 12:41:18;;;;;;;;;;;;;;;26.78;44.58;97857.66;5027891;28;20015;-70